sensor_id;sensor_type;location;lat;lon;timestamp;temperature;humidity
51215;DHT22;63849;47.546;19.254;2023-03-15T00:01:18;10.30;79.90
51215;DHT22;63849;47.546;19.254;2023-03-15T00:03:46;10.30;78.40
51215;DHT22;63849;47.546;19.254;2023-03-15T00:06:13;10.30;78.20
51215;DHT22;63849;47.546;19.254;2023-03-15T00:08:39;10.30;78.30
51215;DHT22;63849;47.546;19.254;2023-03-15T00:11:05;10.20;77.90
51215;DHT22;63849;47.546;19.254;2023-03-15T00:13:31;10.20;77.70
51215;DHT22;63849;47.546;19.254;2023-03-15T00:15:59;10.20;77.70
51215;DHT22;63849;47.546;19.254;2023-03-15T00:18:26;10.20;77.40
51215;DHT22;63849;47.546;19.254;2023-03-15T00:20:52;10.10;77.90
51215;DHT22;63849;47.546;19.254;2023-03-15T00:23:18;10.20;77.20
51215;DHT22;63849;47.546;19.254;2023-03-15T00:25:45;10.20;76.80
51215;DHT22;63849;47.546;19.254;2023-03-15T00:28:11;10.20;77.00
51215;DHT22;63849;47.546;19.254;2023-03-15T00:30:37;10.10;77.00
51215;DHT22;63849;47.546;19.254;2023-03-15T00:33:03;10.10;77.30
51215;DHT22;63849;47.546;19.254;2023-03-15T00:35:31;10.10;77.00
51215;DHT22;63849;47.546;19.254;2023-03-15T00:38:03;10.10;77.00
51215;DHT22;63849;47.546;19.254;2023-03-15T00:40:29;10.00;76.40
51215;DHT22;63849;47.546;19.254;2023-03-15T00:42:55;10.00;76.10
51215;DHT22;63849;47.546;19.254;2023-03-15T00:45:22;10.00;75.60
51215;DHT22;63849;47.546;19.254;2023-03-15T00:47:49;10.00;75.50
51215;DHT22;63849;47.546;19.254;2023-03-15T00:50:15;9.90;75.20
51215;DHT22;63849;47.546;19.254;2023-03-15T00:52:41;9.90;75.60
51215;DHT22;63849;47.546;19.254;2023-03-15T00:55:12;9.90;75.60
51215;DHT22;63849;47.546;19.254;2023-03-15T00:57:40;9.90;75.60
51215;DHT22;63849;47.546;19.254;2023-03-15T01:00:11;9.80;75.50
51215;DHT22;63849;47.546;19.254;2023-03-15T01:02:37;9.90;75.10
51215;DHT22;63849;47.546;19.254;2023-03-15T01:05:05;9.80;75.20
51215;DHT22;63849;47.546;19.254;2023-03-15T01:07:31;9.80;75.20
51215;DHT22;63849;47.546;19.254;2023-03-15T01:10:01;9.80;74.50
51215;DHT22;63849;47.546;19.254;2023-03-15T01:12:28;9.90;74.40
51215;DHT22;63849;47.546;19.254;2023-03-15T01:14:57;9.80;74.50
51215;DHT22;63849;47.546;19.254;2023-03-15T01:17:23;9.80;74.70
51215;DHT22;63849;47.546;19.254;2023-03-15T01:19:49;9.70;74.30
51215;DHT22;63849;47.546;19.254;2023-03-15T01:22:17;9.70;73.90
51215;DHT22;63849;47.546;19.254;2023-03-15T01:24:43;9.70;74.10
51215;DHT22;63849;47.546;19.254;2023-03-15T01:27:08;9.60;73.90
51215;DHT22;63849;47.546;19.254;2023-03-15T01:29:34;9.60;73.60
51215;DHT22;63849;47.546;19.254;2023-03-15T01:32:00;9.60;73.70
51215;DHT22;63849;47.546;19.254;2023-03-15T01:34:26;9.60;73.50
51215;DHT22;63849;47.546;19.254;2023-03-15T01:36:52;9.60;73.30
51215;DHT22;63849;47.546;19.254;2023-03-15T01:39:18;9.60;73.40
51215;DHT22;63849;47.546;19.254;2023-03-15T01:41:45;9.60;73.40
51215;DHT22;63849;47.546;19.254;2023-03-15T01:44:15;9.60;73.30
51215;DHT22;63849;47.546;19.254;2023-03-15T01:46:41;9.50;73.40
51215;DHT22;63849;47.546;19.254;2023-03-15T01:49:24;9.50;73.50
51215;DHT22;63849;47.546;19.254;2023-03-15T01:57:12;9.40;73.20
51215;DHT22;63849;47.546;19.254;2023-03-15T01:59:46;9.50;73.00
51215;DHT22;63849;47.546;19.254;2023-03-15T02:02:14;9.40;72.90
51215;DHT22;63849;47.546;19.254;2023-03-15T02:04:45;9.40;72.80
51215;DHT22;63849;47.546;19.254;2023-03-15T02:07:13;9.50;72.70
51215;DHT22;63849;47.546;19.254;2023-03-15T02:10:03;9.50;72.50
51215;DHT22;63849;47.546;19.254;2023-03-15T02:12:37;9.40;72.30
51215;DHT22;63849;47.546;19.254;2023-03-15T02:15:06;9.40;72.70
51215;DHT22;63849;47.546;19.254;2023-03-15T02:17:38;9.30;72.50
51215;DHT22;63849;47.546;19.254;2023-03-15T02:20:32;9.40;72.80
51215;DHT22;63849;47.546;19.254;2023-03-15T02:23:08;9.30;73.00
51215;DHT22;63849;47.546;19.254;2023-03-15T02:28:09;9.30;72.10
51215;DHT22;63849;47.546;19.254;2023-03-15T02:30:36;9.40;72.40
51215;DHT22;63849;47.546;19.254;2023-03-15T02:33:05;9.30;72.50
51215;DHT22;63849;47.546;19.254;2023-03-15T02:35:32;9.20;72.50
51215;DHT22;63849;47.546;19.254;2023-03-15T02:37:58;9.20;71.80
51215;DHT22;63849;47.546;19.254;2023-03-15T02:40:25;9.20;72.50
51215;DHT22;63849;47.546;19.254;2023-03-15T02:43:00;9.20;72.70
51215;DHT22;63849;47.546;19.254;2023-03-15T02:45:27;9.20;72.70
51215;DHT22;63849;47.546;19.254;2023-03-15T02:47:56;9.20;72.20
51215;DHT22;63849;47.546;19.254;2023-03-15T02:50:25;9.20;72.50
51215;DHT22;63849;47.546;19.254;2023-03-15T02:52:51;9.10;72.50
51215;DHT22;63849;47.546;19.254;2023-03-15T02:55:18;9.20;72.20
51215;DHT22;63849;47.546;19.254;2023-03-15T02:57:44;9.10;72.30
51215;DHT22;63849;47.546;19.254;2023-03-15T03:00:11;9.20;72.00
51215;DHT22;63849;47.546;19.254;2023-03-15T03:02:45;9.10;72.10
51215;DHT22;63849;47.546;19.254;2023-03-15T03:05:13;9.10;72.50
51215;DHT22;63849;47.546;19.254;2023-03-15T03:07:39;9.10;72.40
51215;DHT22;63849;47.546;19.254;2023-03-15T03:10:08;9.10;72.20
51215;DHT22;63849;47.546;19.254;2023-03-15T03:12:34;9.20;71.90
51215;DHT22;63849;47.546;19.254;2023-03-15T03:15:00;9.10;72.20
51215;DHT22;63849;47.546;19.254;2023-03-15T03:17:28;9.10;72.20
51215;DHT22;63849;47.546;19.254;2023-03-15T03:19:56;9.10;72.30
51215;DHT22;63849;47.546;19.254;2023-03-15T03:22:22;9.20;71.90
51215;DHT22;63849;47.546;19.254;2023-03-15T03:24:51;9.10;71.80
51215;DHT22;63849;47.546;19.254;2023-03-15T03:27:17;9.20;71.60
51215;DHT22;63849;47.546;19.254;2023-03-15T03:29:44;9.00;71.30
51215;DHT22;63849;47.546;19.254;2023-03-15T03:32:10;9.10;71.70
51215;DHT22;63849;47.546;19.254;2023-03-15T03:34:35;9.10;71.80
51215;DHT22;63849;47.546;19.254;2023-03-15T03:37:01;9.10;71.50
51215;DHT22;63849;47.546;19.254;2023-03-15T03:39:27;9.10;71.50
51215;DHT22;63849;47.546;19.254;2023-03-15T03:41:53;9.10;71.10
51215;DHT22;63849;47.546;19.254;2023-03-15T03:44:19;9.10;71.10
51215;DHT22;63849;47.546;19.254;2023-03-15T03:46:50;9.10;70.80
51215;DHT22;63849;47.546;19.254;2023-03-15T03:49:16;9.20;70.80
51215;DHT22;63849;47.546;19.254;2023-03-15T03:51:41;9.20;70.90
51215;DHT22;63849;47.546;19.254;2023-03-15T03:54:07;9.20;70.70
51215;DHT22;63849;47.546;19.254;2023-03-15T03:56:33;9.10;71.10
51215;DHT22;63849;47.546;19.254;2023-03-15T03:58:59;9.10;70.80
51215;DHT22;63849;47.546;19.254;2023-03-15T04:01:28;9.10;70.60
51215;DHT22;63849;47.546;19.254;2023-03-15T04:03:54;9.10;70.50
51215;DHT22;63849;47.546;19.254;2023-03-15T04:06:20;9.20;70.50
51215;DHT22;63849;47.546;19.254;2023-03-15T04:08:47;9.10;70.30
51215;DHT22;63849;47.546;19.254;2023-03-15T04:11:13;9.10;70.10
51215;DHT22;63849;47.546;19.254;2023-03-15T04:13:43;9.10;70.20
51215;DHT22;63849;47.546;19.254;2023-03-15T04:16:10;9.10;69.80
51215;DHT22;63849;47.546;19.254;2023-03-15T04:18:39;9.10;69.70
51215;DHT22;63849;47.546;19.254;2023-03-15T04:21:07;9.10;69.20
51215;DHT22;63849;47.546;19.254;2023-03-15T04:23:36;9.10;69.40
51215;DHT22;63849;47.546;19.254;2023-03-15T04:26:02;9.10;68.90
51215;DHT22;63849;47.546;19.254;2023-03-15T04:28:30;9.00;68.90
51215;DHT22;63849;47.546;19.254;2023-03-15T04:30:57;9.10;69.10
51215;DHT22;63849;47.546;19.254;2023-03-15T04:33:24;9.10;68.80
51215;DHT22;63849;47.546;19.254;2023-03-15T04:35:55;9.10;68.70
51215;DHT22;63849;47.546;19.254;2023-03-15T04:38:22;9.10;68.60
51215;DHT22;63849;47.546;19.254;2023-03-15T04:40:52;9.10;68.10
51215;DHT22;63849;47.546;19.254;2023-03-15T04:43:19;9.10;67.90
51215;DHT22;63849;47.546;19.254;2023-03-15T04:45:45;9.10;68.00
51215;DHT22;63849;47.546;19.254;2023-03-15T04:48:11;9.10;68.90
51215;DHT22;63849;47.546;19.254;2023-03-15T04:50:37;9.00;68.90
51215;DHT22;63849;47.546;19.254;2023-03-15T04:53:02;9.00;68.50
51215;DHT22;63849;47.546;19.254;2023-03-15T04:55:29;9.00;67.70
51215;DHT22;63849;47.546;19.254;2023-03-15T04:57:54;8.90;67.30
51215;DHT22;63849;47.546;19.254;2023-03-15T05:00:21;8.80;67.30
51215;DHT22;63849;47.546;19.254;2023-03-15T05:02:47;8.70;67.50
51215;DHT22;63849;47.546;19.254;2023-03-15T05:05:20;8.70;67.60
51215;DHT22;63849;47.546;19.254;2023-03-15T05:07:46;8.60;67.70
51215;DHT22;63849;47.546;19.254;2023-03-15T05:10:12;8.70;67.50
51215;DHT22;63849;47.546;19.254;2023-03-15T05:12:38;8.60;67.40
51215;DHT22;63849;47.546;19.254;2023-03-15T05:15:04;8.50;67.60
51215;DHT22;63849;47.546;19.254;2023-03-15T05:17:30;8.50;67.70
51215;DHT22;63849;47.546;19.254;2023-03-15T05:19:58;8.40;67.70
51215;DHT22;63849;47.546;19.254;2023-03-15T05:22:26;8.30;67.90
51215;DHT22;63849;47.546;19.254;2023-03-15T05:24:52;8.30;67.70
51215;DHT22;63849;47.546;19.254;2023-03-15T05:27:19;8.30;68.10
51215;DHT22;63849;47.546;19.254;2023-03-15T05:29:45;8.30;67.80
51215;DHT22;63849;47.546;19.254;2023-03-15T05:32:11;8.10;67.70
51215;DHT22;63849;47.546;19.254;2023-03-15T05:34:37;8.10;68.50
51215;DHT22;63849;47.546;19.254;2023-03-15T05:37:03;8.10;68.20
51215;DHT22;63849;47.546;19.254;2023-03-15T05:39:28;8.20;67.90
51215;DHT22;63849;47.546;19.254;2023-03-15T05:41:59;8.20;68.20
51215;DHT22;63849;47.546;19.254;2023-03-15T05:44:26;8.20;68.40
51215;DHT22;63849;47.546;19.254;2023-03-15T05:46:52;8.10;68.50
51215;DHT22;63849;47.546;19.254;2023-03-15T05:49:17;8.10;68.30
51215;DHT22;63849;47.546;19.254;2023-03-15T05:51:43;7.90;68.50
51215;DHT22;63849;47.546;19.254;2023-03-15T05:54:09;8.00;68.70
51215;DHT22;63849;47.546;19.254;2023-03-15T05:56:35;8.00;68.70
51215;DHT22;63849;47.546;19.254;2023-03-15T05:59:01;7.80;69.30
51215;DHT22;63849;47.546;19.254;2023-03-15T06:01:28;7.80;69.50
51215;DHT22;63849;47.546;19.254;2023-03-15T06:03:57;7.90;69.00
51215;DHT22;63849;47.546;19.254;2023-03-15T06:06:22;7.80;69.80
51215;DHT22;63849;47.546;19.254;2023-03-15T06:08:48;7.90;69.60
51215;DHT22;63849;47.546;19.254;2023-03-15T06:11:14;7.90;69.30
51215;DHT22;63849;47.546;19.254;2023-03-15T06:13:40;7.90;69.20
51215;DHT22;63849;47.546;19.254;2023-03-15T06:16:06;8.00;69.20
51215;DHT22;63849;47.546;19.254;2023-03-15T06:18:32;8.10;69.10
51215;DHT22;63849;47.546;19.254;2023-03-15T06:21:00;8.10;69.30
51215;DHT22;63849;47.546;19.254;2023-03-15T06:23:29;8.10;68.90
51215;DHT22;63849;47.546;19.254;2023-03-15T06:25:57;8.10;69.00
51215;DHT22;63849;47.546;19.254;2023-03-15T06:28:26;8.10;69.40
51215;DHT22;63849;47.546;19.254;2023-03-15T06:30:54;8.10;69.30
51215;DHT22;63849;47.546;19.254;2023-03-15T06:33:22;8.10;69.40
51215;DHT22;63849;47.546;19.254;2023-03-15T06:35:49;8.20;69.60
51215;DHT22;63849;47.546;19.254;2023-03-15T06:38:15;8.20;69.60
51215;DHT22;63849;47.546;19.254;2023-03-15T06:40:46;8.20;69.40
51215;DHT22;63849;47.546;19.254;2023-03-15T06:43:12;8.20;69.50
51215;DHT22;63849;47.546;19.254;2023-03-15T06:45:43;8.30;69.60
51215;DHT22;63849;47.546;19.254;2023-03-15T06:48:09;8.30;69.30
51215;DHT22;63849;47.546;19.254;2023-03-15T06:50:40;8.30;69.10
51215;DHT22;63849;47.546;19.254;2023-03-15T06:53:12;8.30;69.70
51215;DHT22;63849;47.546;19.254;2023-03-15T06:55:38;8.30;69.30
51215;DHT22;63849;47.546;19.254;2023-03-15T06:58:06;8.40;69.30
51215;DHT22;63849;47.546;19.254;2023-03-15T07:00:35;8.40;69.00
51215;DHT22;63849;47.546;19.254;2023-03-15T07:03:01;8.60;68.70
51215;DHT22;63849;47.546;19.254;2023-03-15T07:05:27;8.60;68.70
51215;DHT22;63849;47.546;19.254;2023-03-15T07:07:53;8.50;68.80
51215;DHT22;63849;47.546;19.254;2023-03-15T07:10:29;8.50;69.10
51215;DHT22;63849;47.546;19.254;2023-03-15T07:12:55;8.60;68.70
51215;DHT22;63849;47.546;19.254;2023-03-15T07:15:20;8.60;68.00
51215;DHT22;63849;47.546;19.254;2023-03-15T07:17:49;8.70;68.00
51215;DHT22;63849;47.546;19.254;2023-03-15T07:20:15;8.80;67.40
51215;DHT22;63849;47.546;19.254;2023-03-15T07:22:41;8.80;67.50
51215;DHT22;63849;47.546;19.254;2023-03-15T07:25:13;8.80;67.50
51215;DHT22;63849;47.546;19.254;2023-03-15T07:27:41;8.70;67.40
51215;DHT22;63849;47.546;19.254;2023-03-15T07:30:08;8.80;67.70
51215;DHT22;63849;47.546;19.254;2023-03-15T07:32:34;8.80;67.40
51215;DHT22;63849;47.546;19.254;2023-03-15T07:35:00;8.70;67.30
51215;DHT22;63849;47.546;19.254;2023-03-15T07:37:27;8.80;67.40
51215;DHT22;63849;47.546;19.254;2023-03-15T07:39:56;8.70;67.20
51215;DHT22;63849;47.546;19.254;2023-03-15T07:42:24;8.80;67.70
51215;DHT22;63849;47.546;19.254;2023-03-15T07:44:50;8.70;67.30
51215;DHT22;63849;47.546;19.254;2023-03-15T07:47:19;8.70;67.00
51215;DHT22;63849;47.546;19.254;2023-03-15T07:49:45;8.70;66.80
51215;DHT22;63849;47.546;19.254;2023-03-15T07:52:11;8.70;66.80
51215;DHT22;63849;47.546;19.254;2023-03-15T07:54:43;8.80;65.60
51215;DHT22;63849;47.546;19.254;2023-03-15T07:57:09;8.60;66.40
51215;DHT22;63849;47.546;19.254;2023-03-15T07:59:35;8.70;65.70
51215;DHT22;63849;47.546;19.254;2023-03-15T08:02:03;8.50;65.90
51215;DHT22;63849;47.546;19.254;2023-03-15T08:04:30;8.30;66.40
51215;DHT22;63849;47.546;19.254;2023-03-15T08:06:56;8.30;67.00
51215;DHT22;63849;47.546;19.254;2023-03-15T08:09:22;8.40;66.30
51215;DHT22;63849;47.546;19.254;2023-03-15T08:11:48;8.40;65.60
51215;DHT22;63849;47.546;19.254;2023-03-15T08:14:13;8.30;66.00
51215;DHT22;63849;47.546;19.254;2023-03-15T08:16:39;8.20;65.90
51215;DHT22;63849;47.546;19.254;2023-03-15T08:19:08;8.30;66.50
51215;DHT22;63849;47.546;19.254;2023-03-15T08:21:42;8.20;64.20
51215;DHT22;63849;47.546;19.254;2023-03-15T08:24:10;8.10;64.70
51215;DHT22;63849;47.546;19.254;2023-03-15T08:26:36;8.30;64.60
51215;DHT22;63849;47.546;19.254;2023-03-15T08:29:09;8.30;63.90
51215;DHT22;63849;47.546;19.254;2023-03-15T08:31:35;8.30;62.80
51215;DHT22;63849;47.546;19.254;2023-03-15T08:34:01;8.20;63.10
51215;DHT22;63849;47.546;19.254;2023-03-15T08:36:30;8.20;62.80
51215;DHT22;63849;47.546;19.254;2023-03-15T08:38:57;8.30;63.10
51215;DHT22;63849;47.546;19.254;2023-03-15T08:41:25;8.30;63.30
51215;DHT22;63849;47.546;19.254;2023-03-15T08:43:51;8.30;62.90
51215;DHT22;63849;47.546;19.254;2023-03-15T08:46:17;8.20;62.60
51215;DHT22;63849;47.546;19.254;2023-03-15T08:48:49;8.20;63.00
51215;DHT22;63849;47.546;19.254;2023-03-15T08:51:15;8.10;62.40
51215;DHT22;63849;47.546;19.254;2023-03-15T08:53:41;8.00;63.10
51215;DHT22;63849;47.546;19.254;2023-03-15T08:56:19;8.20;63.20
51215;DHT22;63849;47.546;19.254;2023-03-15T08:58:45;8.10;62.50
51215;DHT22;63849;47.546;19.254;2023-03-15T09:01:13;8.10;63.10
51215;DHT22;63849;47.546;19.254;2023-03-15T09:03:39;8.10;62.40
51215;DHT22;63849;47.546;19.254;2023-03-15T09:06:10;8.10;62.10
51215;DHT22;63849;47.546;19.254;2023-03-15T09:08:36;8.10;62.00
51215;DHT22;63849;47.546;19.254;2023-03-15T09:11:05;8.10;62.70
51215;DHT22;63849;47.546;19.254;2023-03-15T09:13:42;7.90;61.80
51215;DHT22;63849;47.546;19.254;2023-03-15T09:16:10;7.90;62.00
51215;DHT22;63849;47.546;19.254;2023-03-15T09:18:37;8.10;62.00
51215;DHT22;63849;47.546;19.254;2023-03-15T09:21:06;8.10;61.10
51215;DHT22;63849;47.546;19.254;2023-03-15T09:23:31;8.10;60.90
51215;DHT22;63849;47.546;19.254;2023-03-15T09:25:58;7.80;61.60
51215;DHT22;63849;47.546;19.254;2023-03-15T09:28:24;8.00;62.00
51215;DHT22;63849;47.546;19.254;2023-03-15T09:30:51;7.90;60.70
51215;DHT22;63849;47.546;19.254;2023-03-15T09:33:17;8.10;61.30
51215;DHT22;63849;47.546;19.254;2023-03-15T09:35:43;8.10;60.90
51215;DHT22;63849;47.546;19.254;2023-03-15T09:38:15;8.10;60.40
51215;DHT22;63849;47.546;19.254;2023-03-15T09:40:42;8.20;60.60
51215;DHT22;63849;47.546;19.254;2023-03-15T09:49:08;8.20;58.90
51215;DHT22;63849;47.546;19.254;2023-03-15T09:54:52;8.00;60.10
51215;DHT22;63849;47.546;19.254;2023-03-15T09:57:50;8.10;59.40
51215;DHT22;63849;47.546;19.254;2023-03-15T10:00:19;8.10;59.60
51215;DHT22;63849;47.546;19.254;2023-03-15T10:03:03;8.30;60.00
51215;DHT22;63849;47.546;19.254;2023-03-15T10:05:46;8.10;59.20
51215;DHT22;63849;47.546;19.254;2023-03-15T10:08:15;8.20;58.50
51215;DHT22;63849;47.546;19.254;2023-03-15T10:13:42;8.30;59.10
51215;DHT22;63849;47.546;19.254;2023-03-15T10:16:47;8.30;59.60
51215;DHT22;63849;47.546;19.254;2023-03-15T10:27:33;8.30;60.30
51215;DHT22;63849;47.546;19.254;2023-03-15T10:30:08;8.40;59.80
51215;DHT22;63849;47.546;19.254;2023-03-15T10:32:40;8.60;60.60
51215;DHT22;63849;47.546;19.254;2023-03-15T10:35:16;8.50;59.10
51215;DHT22;63849;47.546;19.254;2023-03-15T10:37:42;8.50;58.10
51215;DHT22;63849;47.546;19.254;2023-03-15T10:40:11;8.50;59.10
51215;DHT22;63849;47.546;19.254;2023-03-15T10:42:46;8.30;59.90
51215;DHT22;63849;47.546;19.254;2023-03-15T10:45:21;8.40;58.90
51215;DHT22;63849;47.546;19.254;2023-03-15T10:47:48;8.30;58.50
51215;DHT22;63849;47.546;19.254;2023-03-15T10:50:26;8.30;60.40
51215;DHT22;63849;47.546;19.254;2023-03-15T10:52:55;8.30;59.10
51215;DHT22;63849;47.546;19.254;2023-03-15T10:55:36;8.30;58.70
51215;DHT22;63849;47.546;19.254;2023-03-15T11:01:05;8.50;60.10
51215;DHT22;63849;47.546;19.254;2023-03-15T11:03:33;8.60;57.70
51215;DHT22;63849;47.546;19.254;2023-03-15T11:06:00;8.70;57.80
51215;DHT22;63849;47.546;19.254;2023-03-15T11:08:41;9.00;58.10
51215;DHT22;63849;47.546;19.254;2023-03-15T11:11:10;8.90;56.40
51215;DHT22;63849;47.546;19.254;2023-03-15T11:13:40;8.80;55.30
51215;DHT22;63849;47.546;19.254;2023-03-15T11:16:19;8.80;57.30
51215;DHT22;63849;47.546;19.254;2023-03-15T11:18:53;9.20;56.40
51215;DHT22;63849;47.546;19.254;2023-03-15T11:21:27;9.40;55.50
51215;DHT22;63849;47.546;19.254;2023-03-15T11:23:55;9.30;55.50
51215;DHT22;63849;47.546;19.254;2023-03-15T11:26:26;9.40;55.80
51215;DHT22;63849;47.546;19.254;2023-03-15T11:28:55;9.50;55.40
51215;DHT22;63849;47.546;19.254;2023-03-15T11:31:25;9.30;55.60
51215;DHT22;63849;47.546;19.254;2023-03-15T11:34:08;9.30;55.30
51215;DHT22;63849;47.546;19.254;2023-03-15T11:36:40;9.40;54.90
51215;DHT22;63849;47.546;19.254;2023-03-15T11:39:13;9.40;54.60
51215;DHT22;63849;47.546;19.254;2023-03-15T11:41:55;9.40;55.00
51215;DHT22;63849;47.546;19.254;2023-03-15T11:44:26;9.40;55.90
51215;DHT22;63849;47.546;19.254;2023-03-15T11:49:54;9.90;56.10
51215;DHT22;63849;47.546;19.254;2023-03-15T11:52:25;9.80;53.20
51215;DHT22;63849;47.546;19.254;2023-03-15T11:55:00;9.60;53.20
51215;DHT22;63849;47.546;19.254;2023-03-15T12:03:29;9.40;53.70
51215;DHT22;63849;47.546;19.254;2023-03-15T12:06:05;9.30;53.60
51215;DHT22;63849;47.546;19.254;2023-03-15T12:08:42;9.40;53.50
51215;DHT22;63849;47.546;19.254;2023-03-15T12:16:31;9.80;51.30
51215;DHT22;63849;47.546;19.254;2023-03-15T12:19:13;9.90;51.40
51215;DHT22;63849;47.546;19.254;2023-03-15T12:21:54;9.80;51.70
51215;DHT22;63849;47.546;19.254;2023-03-15T12:24:30;10.20;52.00
51215;DHT22;63849;47.546;19.254;2023-03-15T12:27:06;10.30;51.30
51215;DHT22;63849;47.546;19.254;2023-03-15T12:29:40;10.20;50.90
51215;DHT22;63849;47.546;19.254;2023-03-15T12:32:15;9.80;51.30
51215;DHT22;63849;47.546;19.254;2023-03-15T12:37:26;9.80;52.30
51215;DHT22;63849;47.546;19.254;2023-03-15T12:53:11;9.80;51.50
51215;DHT22;63849;47.546;19.254;2023-03-15T12:55:41;9.60;51.10
51215;DHT22;63849;47.546;19.254;2023-03-15T12:58:11;9.50;50.20
51215;DHT22;63849;47.546;19.254;2023-03-15T13:00:40;9.50;50.60
51215;DHT22;63849;47.546;19.254;2023-03-15T13:03:15;9.40;50.50
51215;DHT22;63849;47.546;19.254;2023-03-15T13:06:08;9.60;51.50
51215;DHT22;63849;47.546;19.254;2023-03-15T13:14:06;9.40;49.10
51215;DHT22;63849;47.546;19.254;2023-03-15T13:16:51;9.30;48.40
51215;DHT22;63849;47.546;19.254;2023-03-15T13:19:25;9.10;47.90
51215;DHT22;63849;47.546;19.254;2023-03-15T13:30:37;9.20;47.30
51215;DHT22;63849;47.546;19.254;2023-03-15T13:35:29;8.80;47.60
51215;DHT22;63849;47.546;19.254;2023-03-15T13:41:25;8.80;47.80
51215;DHT22;63849;47.546;19.254;2023-03-15T13:43:57;8.60;47.00
51215;DHT22;63849;47.546;19.254;2023-03-15T13:46:26;8.70;46.90
51215;DHT22;63849;47.546;19.254;2023-03-15T13:48:54;8.70;45.90
51215;DHT22;63849;47.546;19.254;2023-03-15T13:51:26;8.70;46.00
51215;DHT22;63849;47.546;19.254;2023-03-15T13:54:10;8.70;45.30
51215;DHT22;63849;47.546;19.254;2023-03-15T14:05:11;8.60;44.40
51215;DHT22;63849;47.546;19.254;2023-03-15T14:07:40;8.80;44.60
51215;DHT22;63849;47.546;19.254;2023-03-15T14:10:18;8.80;44.40
51215;DHT22;63849;47.546;19.254;2023-03-15T14:12:45;8.80;44.50
51215;DHT22;63849;47.546;19.254;2023-03-15T14:15:20;8.80;45.90
51215;DHT22;63849;47.546;19.254;2023-03-15T14:17:59;8.80;45.10
51215;DHT22;63849;47.546;19.254;2023-03-15T14:20:30;8.90;45.70
51215;DHT22;63849;47.546;19.254;2023-03-15T14:22:59;8.90;45.40
51215;DHT22;63849;47.546;19.254;2023-03-15T14:25:26;8.80;45.30
51215;DHT22;63849;47.546;19.254;2023-03-15T14:27:52;8.70;44.80
51215;DHT22;63849;47.546;19.254;2023-03-15T14:30:24;8.80;46.10
51215;DHT22;63849;47.546;19.254;2023-03-15T14:32:56;8.80;45.20
51215;DHT22;63849;47.546;19.254;2023-03-15T14:35:27;8.80;44.50
51215;DHT22;63849;47.546;19.254;2023-03-15T14:40:41;8.60;43.60
51215;DHT22;63849;47.546;19.254;2023-03-15T14:43:08;8.60;44.70
51215;DHT22;63849;47.546;19.254;2023-03-15T14:45:37;8.40;44.40
51215;DHT22;63849;47.546;19.254;2023-03-15T14:48:19;8.50;44.50
51215;DHT22;63849;47.546;19.254;2023-03-15T14:50:47;8.50;44.30
51215;DHT22;63849;47.546;19.254;2023-03-15T14:53:17;8.40;43.90
51215;DHT22;63849;47.546;19.254;2023-03-15T14:55:44;8.30;43.70
51215;DHT22;63849;47.546;19.254;2023-03-15T14:58:12;8.30;44.00
51215;DHT22;63849;47.546;19.254;2023-03-15T15:00:39;8.30;43.60
51215;DHT22;63849;47.546;19.254;2023-03-15T15:03:34;8.30;44.10
51215;DHT22;63849;47.546;19.254;2023-03-15T15:06:07;8.30;44.70
51215;DHT22;63849;47.546;19.254;2023-03-15T15:08:36;8.30;44.60
51215;DHT22;63849;47.546;19.254;2023-03-15T15:11:05;8.40;44.20
51215;DHT22;63849;47.546;19.254;2023-03-15T15:13:34;8.30;43.90
51215;DHT22;63849;47.546;19.254;2023-03-15T15:16:00;8.30;44.00
51215;DHT22;63849;47.546;19.254;2023-03-15T15:18:28;8.30;43.60
51215;DHT22;63849;47.546;19.254;2023-03-15T15:20:58;8.10;43.90
51215;DHT22;63849;47.546;19.254;2023-03-15T15:23:27;8.00;44.30
51215;DHT22;63849;47.546;19.254;2023-03-15T15:25:57;8.00;44.10
51215;DHT22;63849;47.546;19.254;2023-03-15T15:28:23;7.90;44.30
51215;DHT22;63849;47.546;19.254;2023-03-15T15:30:50;7.90;44.50
51215;DHT22;63849;47.546;19.254;2023-03-15T15:33:15;7.90;44.40
51215;DHT22;63849;47.546;19.254;2023-03-15T15:35:41;8.00;44.30
51215;DHT22;63849;47.546;19.254;2023-03-15T15:38:11;8.00;44.10
51215;DHT22;63849;47.546;19.254;2023-03-15T15:40:38;7.90;43.70
51215;DHT22;63849;47.546;19.254;2023-03-15T15:43:04;7.90;43.40
51215;DHT22;63849;47.546;19.254;2023-03-15T15:45:30;7.70;43.40
51215;DHT22;63849;47.546;19.254;2023-03-15T15:47:59;7.80;43.70
51215;DHT22;63849;47.546;19.254;2023-03-15T15:50:32;7.80;43.60
51215;DHT22;63849;47.546;19.254;2023-03-15T15:53:01;7.90;43.90
51215;DHT22;63849;47.546;19.254;2023-03-15T15:55:31;7.80;44.50
51215;DHT22;63849;47.546;19.254;2023-03-15T15:57:58;7.80;43.40
51215;DHT22;63849;47.546;19.254;2023-03-15T16:00:25;7.80;43.40
51215;DHT22;63849;47.546;19.254;2023-03-15T16:02:53;7.70;43.30
51215;DHT22;63849;47.546;19.254;2023-03-15T16:05:20;7.50;43.30
51215;DHT22;63849;47.546;19.254;2023-03-15T16:07:49;7.40;42.50
51215;DHT22;63849;47.546;19.254;2023-03-15T16:12:45;7.40;43.40
51215;DHT22;63849;47.546;19.254;2023-03-15T16:15:12;7.40;43.00
51215;DHT22;63849;47.546;19.254;2023-03-15T16:17:39;7.30;43.40
51215;DHT22;63849;47.546;19.254;2023-03-15T16:20:05;7.30;43.00
51215;DHT22;63849;47.546;19.254;2023-03-15T16:22:32;7.30;43.70
51215;DHT22;63849;47.546;19.254;2023-03-15T16:24:58;7.30;42.80
51215;DHT22;63849;47.546;19.254;2023-03-15T16:27:27;7.30;42.60
51215;DHT22;63849;47.546;19.254;2023-03-15T16:29:54;7.20;42.70
51215;DHT22;63849;47.546;19.254;2023-03-15T16:32:24;7.10;42.20
51215;DHT22;63849;47.546;19.254;2023-03-15T16:34:52;7.20;42.50
51215;DHT22;63849;47.546;19.254;2023-03-15T16:37:24;7.20;43.30
51215;DHT22;63849;47.546;19.254;2023-03-15T16:39:53;7.20;42.60
51215;DHT22;63849;47.546;19.254;2023-03-15T16:42:22;7.20;42.40
51215;DHT22;63849;47.546;19.254;2023-03-15T16:44:50;7.10;42.50
51215;DHT22;63849;47.546;19.254;2023-03-15T16:47:17;7.10;42.00
51215;DHT22;63849;47.546;19.254;2023-03-15T16:49:43;7.10;42.50
51215;DHT22;63849;47.546;19.254;2023-03-15T16:52:11;7.00;42.90
51215;DHT22;63849;47.546;19.254;2023-03-15T16:54:39;6.90;42.10
51215;DHT22;63849;47.546;19.254;2023-03-15T16:57:24;6.80;41.60
51215;DHT22;63849;47.546;19.254;2023-03-15T16:59:50;6.90;41.40
51215;DHT22;63849;47.546;19.254;2023-03-15T17:02:21;6.90;41.90
51215;DHT22;63849;47.546;19.254;2023-03-15T17:04:47;7.00;42.60
51215;DHT22;63849;47.546;19.254;2023-03-15T17:07:14;6.90;41.20
51215;DHT22;63849;47.546;19.254;2023-03-15T17:09:43;6.80;41.80
51215;DHT22;63849;47.546;19.254;2023-03-15T17:12:20;6.80;42.10
51215;DHT22;63849;47.546;19.254;2023-03-15T17:14:46;6.80;40.90
51215;DHT22;63849;47.546;19.254;2023-03-15T17:17:12;6.80;41.40